Time;durP1;ratioP1;P1;durP2;ratioP2;P2;SDS_P1;SDS_P2;PMS_P1;PMS_P2;Temp;Humidity;BMP_temperature;BMP_pressure;BME280_temperature;BME280_humidity;BME280_pressure;Samples;Min_cycle;Max_cycle;Signal;HPM_P1;HPM_P2
2021/08/11 00:01:32;;;;;;;;;;;;;;;;;;4948357;28;19914;-69
2021/08/11 00:03:57;;;;;;;;;;;;;;;;;;4965801;28;19918;-69
2021/08/11 00:06:22;;;;;;;;;;;;;;;;;;4949616;28;19914;-69
2021/08/11 00:08:50;;;;;;;;;;;;;;;;;;4971167;28;20384;-67
2021/08/11 00:11:15;;;;;;;;;;;;;;;;;;4966115;28;19996;-68
2021/08/11 00:13:40;;;;;;;;;;;;;;;;;;4969474;28;20088;-68
2021/08/11 00:16:06;;;;;;;;;;;;;;;;;;4962312;28;20638;-70
2021/08/11 00:18:31;;;;;;;;;;;;;;;;;;4966497;28;20422;-68
2021/08/11 00:20:56;;;;;;;;;;;;;;;;;;4971147;28;19925;-69
2021/08/11 00:23:24;;;;;;;;;;;;;;;;;;4948929;28;19913;-68
2021/08/11 00:25:54;;;;;;;;;;;;;;;;;;4953258;28;19921;-69
2021/08/11 00:28:19;;;;;;;;;;;;;;;;;;4968579;28;19987;-69
2021/08/11 00:30:44;;;;;;;;;;;;;;;;;;4945548;28;19925;-68
2021/08/11 00:33:09;;;;;;;;;;;;;;;;;;4954683;28;19960;-69
2021/08/11 00:35:35;;;;;;;;;;;;;;;;;;4947084;28;19974;-69
2021/08/11 00:38:00;;;;;;;;;;;;;;;;;;4949154;28;20580;-69
2021/08/11 00:40:26;;;;;;;;;;;;;;;;;;4947187;28;20351;-69
2021/08/11 00:42:51;;;;;;;;;;;;;;;;;;4946253;28;20013;-68
2021/08/11 00:45:16;;;;;;;;;;;;;;;;;;4951445;28;20044;-68
2021/08/11 00:47:42;;;;;;;;;;;;;;;;;;4946223;28;19939;-69
2021/08/11 00:50:07;;;;;;;;;;;;;;;;;;4951669;28;19922;-69
2021/08/11 00:52:33;;;;;;;;;;;;;;;;;;4952132;28;20009;-68
2021/08/11 00:54:59;;;;;;;;;;;;;;;;;;4948810;28;19921;-69
2021/08/11 00:57:26;;;;;;;;;;;;;;;;;;4956726;28;19914;-68
2021/08/11 00:59:54;;;;;;;;;;;;;;;;;;4954301;28;19914;-69
2021/08/11 01:02:19;;;;;;;;;;;;;;;;;;4947993;28;20334;-69
2021/08/11 01:04:48;;;;;;;;;;;;;;;;;;4942381;28;19914;-69
2021/08/11 01:07:13;;;;;;;;;;;;;;;;;;4972067;28;20256;-70
2021/08/11 01:09:38;;;;;;;;;;;;;;;;;;4957682;28;19922;-69
2021/08/11 01:12:04;;;;;;;;;;;;;;;;;;4950910;28;19913;-69
2021/08/11 01:14:30;;;;;;;;;;;;;;;;;;4952614;28;19921;-72
2021/08/11 01:16:57;;;;;;;;;;;;;;;;;;4955946;28;20008;-68
2021/08/11 01:19:23;;;;;;;;;;;;;;;;;;4949145;28;20004;-69
2021/08/11 01:21:50;;;;;;;;;;;;;;;;;;4953501;28;19914;-69
2021/08/11 01:24:15;;;;;;;;;;;;;;;;;;4964947;28;19914;-69
2021/08/11 01:26:41;;;;;;;;;;;;;;;;;;4950456;28;20019;-69
2021/08/11 01:29:06;;;;;;;;;;;;;;;;;;4955940;28;19930;-69
2021/08/11 01:31:32;;;;;;;;;;;;;;;;;;4950086;28;19921;-69
2021/08/11 01:33:57;;;;;;;;;;;;;;;;;;4937002;28;19929;-69
2021/08/11 01:36:24;;;;;;;;;;;;;;;;;;4949401;28;19918;-70
2021/08/11 01:38:49;;;;;;;;;;;;;;;;;;4949174;28;20331;-69
2021/08/11 01:41:14;;;;;;;;;;;;;;;;;;4956503;28;20008;-68
2021/08/11 01:43:41;;;;;;;;;;;;;;;;;;4949474;28;20310;-69
2021/08/11 01:46:06;;;;;;;;;;;;;;;;;;4956132;28;19914;-68
2021/08/11 01:48:32;;;;;;;;;;;;;;;;;;4950382;28;19914;-69
2021/08/11 01:51:01;;;;;;;;;;;;;;;;;;4951956;28;19914;-68
2021/08/11 01:53:29;;;;;;;;;;;;;;;;;;4955098;28;19984;-69
2021/08/11 01:55:54;;;;;;;;;;;;;;;;;;4952567;28;20416;-69
2021/08/11 01:58:20;;;;;;;;;;;;;;;;;;4956048;28;19929;-68
2021/08/11 02:00:45;;;;;;;;;;;;;;;;;;4948978;28;20286;-68
2021/08/11 02:03:10;;;;;;;;;;;;;;;;;;4937364;28;20344;-68
2021/08/11 02:05:38;;;;;;;;;;;;;;;;;;4955509;28;20359;-69
2021/08/11 02:08:09;;;;;;;;;;;;;;;;;;4946845;28;20430;-68
2021/08/11 02:10:37;;;;;;;;;;;;;;;;;;4958485;28;19914;-68
2021/08/11 02:13:02;;;;;;;;;;;;;;;;;;4948589;28;20008;-69
2021/08/11 02:15:29;;;;;;;;;;;;;;;;;;4951885;28;19914;-68
2021/08/11 02:17:54;;;;;;;;;;;;;;;;;;4937017;28;19922;-69
2021/08/11 02:20:22;;;;;;;;;;;;;;;;;;4933268;28;19985;-68
2021/08/11 02:22:49;;;;;;;;;;;;;;;;;;4953092;28;20285;-69
2021/08/11 02:25:14;;;;;;;;;;;;;;;;;;4938199;28;20329;-69
2021/08/11 02:27:42;;;;;;;;;;;;;;;;;;4952007;28;19918;-69
2021/08/11 02:30:09;;;;;;;;;;;;;;;;;;4953699;28;19914;-69
2021/08/11 02:32:36;;;;;;;;;;;;;;;;;;4949406;28;20355;-69
2021/08/11 02:35:02;;;;;;;;;;;;;;;;;;4933092;28;19918;-68
2021/08/11 02:37:30;;;;;;;;;;;;;;;;;;4956821;28;20429;-69
2021/08/11 02:39:55;;;;;;;;;;;;;;;;;;4964199;28;20013;-68
2021/08/11 02:42:21;;;;;;;;;;;;;;;;;;4957385;28;19909;-69
2021/08/11 02:44:46;;;;;;;;;;;;;;;;;;4948699;28;19936;-69
2021/08/11 02:47:13;;;;;;;;;;;;;;;;;;4947713;28;19914;-68
2021/08/11 02:49:38;;;;;;;;;;;;;;;;;;4954382;28;20537;-68
2021/08/11 02:52:06;;;;;;;;;;;;;;;;;;4950581;28;19914;-69
2021/08/11 02:54:32;;;;;;;;;;;;;;;;;;4953708;28;19924;-69
2021/08/11 02:57:02;;;;;;;;;;;;;;;;;;4950358;28;20471;-69
2021/08/11 02:59:28;;;;;;;;;;;;;;;;;;4934795;28;19918;-69
2021/08/11 03:01:53;;;;;;;;;;;;;;;;;;4958417;28;19910;-68
2021/08/11 03:04:19;;;;;;;;;;;;;;;;;;4946675;28;20013;-68
2021/08/11 03:06:44;;;;;;;;;;;;;;;;;;4954854;28;19940;-68
2021/08/11 03:09:10;;;;;;;;;;;;;;;;;;4947213;28;20255;-69
2021/08/11 03:11:35;;;;;;;;;;;;;;;;;;4965348;28;19965;-68
2021/08/11 03:14:01;;;;;;;;;;;;;;;;;;4952207;28;20257;-69
2021/08/11 03:16:26;;;;;;;;;;;;;;;;;;4949917;28;19914;-69
2021/08/11 03:18:51;;;;;;;;;;;;;;;;;;4957743;28;19924;-68
2021/08/11 03:21:17;;;;;;;;;;;;;;;;;;4949023;28;20398;-68
2021/08/11 03:23:42;;;;;;;;;;;;;;;;;;4964692;28;19914;-69
2021/08/11 03:26:07;;;;;;;;;;;;;;;;;;4938793;28;19914;-68
2021/08/11 03:28:33;;;;;;;;;;;;;;;;;;4949080;28;19940;-68
2021/08/11 03:30:58;;;;;;;;;;;;;;;;;;4951994;28;19925;-68
2021/08/11 03:33:24;;;;;;;;;;;;;;;;;;4947427;28;20291;-68
2021/08/11 03:35:49;;;;;;;;;;;;;;;;;;4947707;28;19997;-68
2021/08/11 03:38:15;;;;;;;;;;;;;;;;;;4966865;28;19917;-69
2021/08/11 03:40:40;;;;;;;;;;;;;;;;;;4945128;28;19956;-68
2021/08/11 03:43:06;;;;;;;;;;;;;;;;;;4953330;28;19914;-69
2021/08/11 03:45:32;;;;;;;;;;;;;;;;;;4946238;28;19921;-69
2021/08/11 03:47:57;;;;;;;;;;;;;;;;;;4939287;28;19957;-68
2021/08/11 03:50:25;;;;;;;;;;;;;;;;;;4939899;28;19913;-69
2021/08/11 03:52:51;;;;;;;;;;;;;;;;;;4952804;28;19921;-69
2021/08/11 03:55:26;;;;;;;;;;;;;;;;;;4953914;28;19918;-69
2021/08/11 03:57:52;;;;;;;;;;;;;;;;;;4947663;28;20399;-68
2021/08/11 04:00:18;;;;;;;;;;;;;;;;;;4945825;28;19925;-69
2021/08/11 04:02:45;;;;;;;;;;;;;;;;;;4952658;28;20385;-68
2021/08/11 04:05:10;;;;;;;;;;;;;;;;;;4948571;28;19913;-68
2021/08/11 04:07:36;;;;;;;;;;;;;;;;;;4952957;28;19925;-69
2021/08/11 04:10:01;;;;;;;;;;;;;;;;;;4964698;28;19918;-71
2021/08/11 04:12:26;;;;;;;;;;;;;;;;;;4963146;28;19989;-69
2021/08/11 04:14:51;;;;;;;;;;;;;;;;;;4968485;28;19926;-70
2021/08/11 04:17:16;;;;;;;;;;;;;;;;;;4963573;28;19910;-68
2021/08/11 04:19:41;;;;;;;;;;;;;;;;;;4969347;28;19926;-70
2021/08/11 04:22:07;;;;;;;;;;;;;;;;;;4962250;28;19914;-70
2021/08/11 04:24:32;;;;;;;;;;;;;;;;;;4963235;28;19961;-69
2021/08/11 04:26:57;;;;;;;;;;;;;;;;;;4971116;28;19941;-69
2021/08/11 04:29:22;;;;;;;;;;;;;;;;;;4963397;28;20071;-70
2021/08/11 04:31:47;;;;;;;;;;;;;;;;;;4962065;28;19921;-69
2021/08/11 04:34:12;;;;;;;;;;;;;;;;;;4948623;28;19918;-68
2021/08/11 04:36:38;;;;;;;;;;;;;;;;;;4970366;28;19921;-69
2021/08/11 04:39:03;;;;;;;;;;;;;;;;;;4962246;28;19922;-68
2021/08/11 04:41:28;;;;;;;;;;;;;;;;;;4951227;28;19944;-68
2021/08/11 04:43:53;;;;;;;;;;;;;;;;;;4974175;28;20271;-68
2021/08/11 04:46:18;;;;;;;;;;;;;;;;;;4966732;28;20000;-69
2021/08/11 04:48:44;;;;;;;;;;;;;;;;;;4967658;28;19992;-69
2021/08/11 04:51:09;;;;;;;;;;;;;;;;;;4974147;28;19936;-69
2021/08/11 04:53:34;;;;;;;;;;;;;;;;;;4968011;28;19932;-70
2021/08/11 04:55:59;;;;;;;;;;;;;;;;;;4971172;28;19918;-70
2021/08/11 04:58:24;;;;;;;;;;;;;;;;;;4969444;28;19915;-71
2021/08/11 05:00:49;;;;;;;;;;;;;;;;;;4968733;28;19937;-70
2021/08/11 05:03:17;;;;;;;;;;;;;;;;;;4973882;28;19967;-71
2021/08/11 05:05:42;;;;;;;;;;;;;;;;;;4963565;28;20314;-70
2021/08/11 05:08:07;;;;;;;;;;;;;;;;;;4955506;28;19910;-70
2021/08/11 05:10:32;;;;;;;;;;;;;;;;;;4967380;28;19914;-70
2021/08/11 05:12:58;;;;;;;;;;;;;;;;;;4961109;28;19957;-70
2021/08/11 05:15:23;;;;;;;;;;;;;;;;;;4968330;28;20262;-71
2021/08/11 05:17:48;;;;;;;;;;;;;;;;;;4967695;28;19968;-70
2021/08/11 05:20:13;;;;;;;;;;;;;;;;;;4973965;28;20310;-71
2021/08/11 05:22:38;;;;;;;;;;;;;;;;;;4966886;28;19922;-70
2021/08/11 05:25:03;;;;;;;;;;;;;;;;;;4967478;28;19921;-70
2021/08/11 05:27:29;;;;;;;;;;;;;;;;;;4971542;28;20434;-70
2021/08/11 05:29:54;;;;;;;;;;;;;;;;;;4963523;28;20398;-71
2021/08/11 05:32:19;;;;;;;;;;;;;;;;;;4971216;28;19984;-70
2021/08/11 05:34:44;;;;;;;;;;;;;;;;;;4965369;28;19957;-71
2021/08/11 05:37:09;;;;;;;;;;;;;;;;;;4970159;28;19918;-70
2021/08/11 05:39:35;;;;;;;;;;;;;;;;;;4971953;28;20332;-71
2021/08/11 05:42:00;;;;;;;;;;;;;;;;;;4969198;28;19910;-72
2021/08/11 05:44:25;;;;;;;;;;;;;;;;;;4971310;28;19966;-70
2021/08/11 05:46:50;;;;;;;;;;;;;;;;;;4955730;28;19913;-70
2021/08/11 05:49:15;;;;;;;;;;;;;;;;;;4973027;28;19977;-71
2021/08/11 05:51:41;;;;;;;;;;;;;;;;;;4971745;28;19913;-69
2021/08/11 05:54:06;;;;;;;;;;;;;;;;;;4974742;28;19914;-69
2021/08/11 05:56:31;;;;;;;;;;;;;;;;;;4974788;28;19918;-70
2021/08/11 05:58:56;;;;;;;;;;;;;;;;;;4970885;28;19949;-69
2021/08/11 06:01:21;;;;;;;;;;;;;;;;;;4972274;28;20500;-70
2021/08/11 06:03:47;;;;;;;;;;;;;;;;;;4971709;28;19952;-70
2021/08/11 06:06:15;;;;;;;;;;;;;;;;;;4943189;28;20393;-69
2021/08/11 06:08:40;;;;;;;;;;;;;;;;;;4959791;28;19913;-69
2021/08/11 06:11:06;;;;;;;;;;;;;;;;;;4958374;28;20032;-67
2021/08/11 06:13:33;;;;;;;;;;;;;;;;;;4967979;28;20491;-68
2021/08/11 06:15:58;;;;;;;;;;;;;;;;;;4970278;28;20037;-67
2021/08/11 06:18:24;;;;;;;;;;;;;;;;;;4950853;28;20339;-68
2021/08/11 06:20:52;;;;;;;;;;;;;;;;;;4966800;28;19924;-67
2021/08/11 06:23:17;;;;;;;;;;;;;;;;;;4969082;28;19914;-68
2021/08/11 06:25:42;;;;;;;;;;;;;;;;;;4968507;28;19964;-67
2021/08/11 06:28:07;;;;;;;;;;;;;;;;;;4966569;28;19970;-68
2021/08/11 06:30:33;;;;;;;;;;;;;;;;;;4969550;28;20008;-67
2021/08/11 06:32:58;;;;;;;;;;;;;;;;;;4969597;28;19992;-66
2021/08/11 06:35:23;;;;;;;;;;;;;;;;;;4967736;28;19918;-68
2021/08/11 06:37:48;;;;;;;;;;;;;;;;;;4972517;28;19918;-68
2021/08/11 06:40:14;;;;;;;;;;;;;;;;;;4952849;28;19949;-67
2021/08/11 06:42:41;;;;;;;;;;;;;;;;;;4968045;28;19936;-67
2021/08/11 06:45:09;;;;;;;;;;;;;;;;;;4959023;28;20192;-67
2021/08/11 06:47:37;;;;;;;;;;;;;;;;;;4950313;28;20428;-68
2021/08/11 06:50:02;;;;;;;;;;;;;;;;;;4952371;28;19922;-68
2021/08/11 06:52:33;;;;;;;;;;;;;;;;;;4969445;28;19953;-68
2021/08/11 06:54:58;;;;;;;;;;;;;;;;;;4970620;28;20013;-68
2021/08/11 06:57:23;;;;;;;;;;;;;;;;;;4948769;28;20029;-67
2021/08/11 06:59:49;;;;;;;;;;;;;;;;;;4966476;28;19921;-67
2021/08/11 07:02:14;;;;;;;;;;;;;;;;;;4955239;28;20379;-69
2021/08/11 07:04:39;;;;;;;;;;;;;;;;;;4969520;28;19918;-68
2021/08/11 07:07:07;;;;;;;;;;;;;;;;;;4964086;28;19921;-67
2021/08/11 07:09:32;;;;;;;;;;;;;;;;;;4966199;28;19914;-68
2021/08/11 07:11:57;;;;;;;;;;;;;;;;;;4965896;28;19914;-68
2021/08/11 07:14:25;;;;;;;;;;;;;;;;;;4964604;28;19968;-68
2021/08/11 07:16:50;;;;;;;;;;;;;;;;;;4949394;28;20000;-67
2021/08/11 07:19:15;;;;;;;;;;;;;;;;;;4951346;28;19921;-68
2021/08/11 07:21:43;;;;;;;;;;;;;;;;;;4971107;28;19924;-69
2021/08/11 07:24:11;;;;;;;;;;;;;;;;;;4951892;28;19914;-72
2021/08/11 07:26:36;;;;;;;;;;;;;;;;;;4952546;28;19914;-71
2021/08/11 07:29:01;;;;;;;;;;;;;;;;;;4947605;28;19968;-67
2021/08/11 07:31:26;;;;;;;;;;;;;;;;;;4947817;28;19913;-65
2021/08/11 07:33:51;;;;;;;;;;;;;;;;;;4949657;28;20037;-68
2021/08/11 07:36:17;;;;;;;;;;;;;;;;;;4950448;28;19917;-67
2021/08/11 07:38:44;;;;;;;;;;;;;;;;;;4967608;28;19978;-67
2021/08/11 07:41:10;;;;;;;;;;;;;;;;;;4941064;28;19998;-68
2021/08/11 07:43:35;;;;;;;;;;;;;;;;;;4964817;28;19920;-67
2021/08/11 07:46:00;;;;;;;;;;;;;;;;;;4965495;28;19981;-67
2021/08/11 07:48:26;;;;;;;;;;;;;;;;;;4966980;28;20277;-68
2021/08/11 07:50:51;;;;;;;;;;;;;;;;;;4967056;28;19984;-68
2021/08/11 07:53:18;;;;;;;;;;;;;;;;;;4950743;28;19960;-69
2021/08/11 07:55:44;;;;;;;;;;;;;;;;;;4951397;28;20000;-68
2021/08/11 07:58:09;;;;;;;;;;;;;;;;;;4962708;28;19971;-68
2021/08/11 08:00:34;;;;;;;;;;;;;;;;;;4963443;28;20108;-69
2021/08/11 08:02:59;;;;;;;;;;;;;;;;;;4948745;28;19918;-68
2021/08/11 08:05:25;;;;;;;;;;;;;;;;;;4950632;28;20012;-68
2021/08/11 08:07:50;;;;;;;;;;;;;;;;;;4948220;28;20249;-68
2021/08/11 08:10:15;;;;;;;;;;;;;;;;;;4933932;28;19914;-69
2021/08/11 08:12:42;;;;;;;;;;;;;;;;;;4969305;28;19914;-68
2021/08/11 08:15:08;;;;;;;;;;;;;;;;;;4966400;28;19913;-68
2021/08/11 08:17:33;;;;;;;;;;;;;;;;;;4970643;28;20293;-68
2021/08/11 08:19:59;;;;;;;;;;;;;;;;;;4967501;28;20265;-69
2021/08/11 08:22:24;;;;;;;;;;;;;;;;;;4967505;28;20328;-69
2021/08/11 08:24:54;;;;;;;;;;;;;;;;;;4947886;28;20036;-68
2021/08/11 08:27:19;;;;;;;;;;;;;;;;;;4950379;28;20005;-69
2021/08/11 08:29:45;;;;;;;;;;;;;;;;;;4967454;28;19997;-68
2021/08/11 08:32:11;;;;;;;;;;;;;;;;;;4966879;28;19914;-67
2021/08/11 08:34:36;;;;;;;;;;;;;;;;;;4970888;28;19913;-69
2021/08/11 08:37:01;;;;;;;;;;;;;;;;;;4964719;28;19920;-68
2021/08/11 08:39:27;;;;;;;;;;;;;;;;;;4965843;28;19954;-68
2021/08/11 08:41:53;;;;;;;;;;;;;;;;;;4971096;28;19964;-68
2021/08/11 08:44:18;;;;;;;;;;;;;;;;;;4948059;28;19969;-67
2021/08/11 08:46:43;;;;;;;;;;;;;;;;;;4968373;28;19914;-70
2021/08/11 08:49:09;;;;;;;;;;;;;;;;;;4965662;28;20394;-68
2021/08/11 08:51:34;;;;;;;;;;;;;;;;;;4971798;28;19960;-68
2021/08/11 08:53:59;;;;;;;;;;;;;;;;;;4967100;28;19949;-68
2021/08/11 08:56:25;;;;;;;;;;;;;;;;;;4949470;28;19918;-69
2021/08/11 08:58:50;;;;;;;;;;;;;;;;;;4965426;28;19930;-69
2021/08/11 09:01:15;;;;;;;;;;;;;;;;;;4968469;28;19921;-69
2021/08/11 09:03:40;;;;;;;;;;;;;;;;;;4966068;28;20076;-69
2021/08/11 09:06:05;;;;;;;;;;;;;;;;;;4969238;28;19920;-68
2021/08/11 09:08:31;;;;;;;;;;;;;;;;;;4952467;28;19913;-69
2021/08/11 09:10:56;;;;;;;;;;;;;;;;;;4968520;28;19940;-69
2021/08/11 09:13:21;;;;;;;;;;;;;;;;;;4934329;28;20081;-68
2021/08/11 09:15:46;;;;;;;;;;;;;;;;;;4969179;28;20435;-69
2021/08/11 09:18:12;;;;;;;;;;;;;;;;;;4972904;28;19914;-69
2021/08/11 09:20:37;;;;;;;;;;;;;;;;;;4970957;28;19944;-68
2021/08/11 09:23:05;;;;;;;;;;;;;;;;;;4970800;28;19914;-70
2021/08/11 09:25:30;;;;;;;;;;;;;;;;;;4971560;28;20366;-68
2021/08/11 09:27:55;;;;;;;;;;;;;;;;;;4973100;28;19979;-68
2021/08/11 09:30:20;;;;;;;;;;;;;;;;;;4950655;28;20347;-69
2021/08/11 09:32:46;;;;;;;;;;;;;;;;;;4967961;28;19914;-69
2021/08/11 09:35:11;;;;;;;;;;;;;;;;;;4954638;28;19914;-69
2021/08/11 09:37:37;;;;;;;;;;;;;;;;;;4967681;28;19921;-69
2021/08/11 09:40:02;;;;;;;;;;;;;;;;;;4953651;28;19922;-69
2021/08/11 09:42:27;;;;;;;;;;;;;;;;;;4966520;28;20264;-69
2021/08/11 09:44:52;;;;;;;;;;;;;;;;;;4973410;28;20316;-69
2021/08/11 09:47:18;;;;;;;;;;;;;;;;;;4970579;28;19914;-69
2021/08/11 09:49:43;;;;;;;;;;;;;;;;;;4970027;28;20321;-69
2021/08/11 09:52:08;;;;;;;;;;;;;;;;;;4968291;28;19913;-68
2021/08/11 09:54:33;;;;;;;;;;;;;;;;;;4973530;28;19933;-70
2021/08/11 09:56:59;;;;;;;;;;;;;;;;;;4970590;28;19914;-68
2021/08/11 09:59:24;;;;;;;;;;;;;;;;;;4969101;28;19922;-68
2021/08/11 10:01:50;;;;;;;;;;;;;;;;;;4954562;28;19921;-69
2021/08/11 10:04:15;;;;;;;;;;;;;;;;;;4971810;28;19917;-68
2021/08/11 10:06:40;;;;;;;;;;;;;;;;;;4968413;28;19947;-69
2021/08/11 10:09:05;;;;;;;;;;;;;;;;;;4968869;28;20354;-69
2021/08/11 10:11:30;;;;;;;;;;;;;;;;;;4971791;28;19917;-69
2021/08/11 10:13:56;;;;;;;;;;;;;;;;;;4969386;28;19914;-68
2021/08/11 10:16:21;;;;;;;;;;;;;;;;;;4968825;28;20328;-67
2021/08/11 10:18:46;;;;;;;;;;;;;;;;;;4967934;28;19968;-69
2021/08/11 10:21:11;;;;;;;;;;;;;;;;;;4952714;28;19917;-70
2021/08/11 10:23:37;;;;;;;;;;;;;;;;;;4970405;28;19925;-69
2021/08/11 10:26:02;;;;;;;;;;;;;;;;;;4969217;28;20267;-69
2021/08/11 10:28:27;;;;;;;;;;;;;;;;;;4966984;28;20012;-68
2021/08/11 10:30:53;;;;;;;;;;;;;;;;;;4967915;28;19980;-69
2021/08/11 10:33:19;;;;;;;;;;;;;;;;;;4954104;28;19918;-70
2021/08/11 10:35:44;;;;;;;;;;;;;;;;;;4968137;28;20323;-68
2021/08/11 10:38:09;;;;;;;;;;;;;;;;;;4963400;28;19913;-69
2021/08/11 10:40:34;;;;;;;;;;;;;;;;;;4951371;28;20399;-71
2021/08/11 10:43:03;;;;;;;;;;;;;;;;;;4966743;28;19917;-70
2021/08/11 10:45:28;;;;;;;;;;;;;;;;;;4946410;28;20260;-69
2021/08/11 10:47:53;;;;;;;;;;;;;;;;;;4969239;28;19965;-71
2021/08/11 10:50:19;;;;;;;;;;;;;;;;;;4950142;28;20003;-70
2021/08/11 10:52:44;;;;;;;;;;;;;;;;;;4952256;28;19914;-66
2021/08/11 10:55:09;;;;;;;;;;;;;;;;;;4967587;28;19914;-70
2021/08/11 10:57:35;;;;;;;;;;;;;;;;;;4970483;28;19914;-68
2021/08/11 11:00:00;;;;;;;;;;;;;;;;;;4963953;28;19929;-65
2021/08/11 11:02:28;;;;;;;;;;;;;;;;;;4944348;28;20354;-65
2021/08/11 11:04:53;;;;;;;;;;;;;;;;;;4965796;28;19914;-65
2021/08/11 11:07:20;;;;;;;;;;;;;;;;;;4968388;28;19914;-68
2021/08/11 11:09:46;;;;;;;;;;;;;;;;;;4966160;28;19914;-67
2021/08/11 11:12:11;;;;;;;;;;;;;;;;;;4958659;28;19937;-73
2021/08/11 11:14:36;;;;;;;;;;;;;;;;;;4967847;28;20426;-72
2021/08/11 11:17:02;;;;;;;;;;;;;;;;;;4968514;28;20382;-71
2021/08/11 11:19:27;;;;;;;;;;;;;;;;;;4966715;28;20426;-68
2021/08/11 11:21:55;;;;;;;;;;;;;;;;;;4965181;28;19922;-68
2021/08/11 11:24:20;;;;;;;;;;;;;;;;;;4933839;28;19918;-69
2021/08/11 11:26:45;;;;;;;;;;;;;;;;;;4963986;28;19914;-68
2021/08/11 11:29:11;;;;;;;;;;;;;;;;;;4966366;28;20004;-68
2021/08/11 11:31:36;;;;;;;;;;;;;;;;;;4967547;28;19918;-69
2021/08/11 11:34:01;;;;;;;;;;;;;;;;;;4951784;28;19914;-68
2021/08/11 11:36:27;;;;;;;;;;;;;;;;;;4964147;28;20013;-68
2021/08/11 11:38:52;;;;;;;;;;;;;;;;;;4948785;28;19965;-68
2021/08/11 11:41:17;;;;;;;;;;;;;;;;;;4948920;28;20385;-68
2021/08/11 11:43:42;;;;;;;;;;;;;;;;;;4967496;28;20402;-68
2021/08/11 11:46:10;;;;;;;;;;;;;;;;;;4967973;28;20359;-68
2021/08/11 11:48:35;;;;;;;;;;;;;;;;;;4968849;28;20359;-71
2021/08/11 11:51:00;;;;;;;;;;;;;;;;;;4972006;28;19921;-72
2021/08/11 11:53:26;;;;;;;;;;;;;;;;;;4968429;28;19913;-72
2021/08/11 11:55:51;;;;;;;;;;;;;;;;;;4953086;28;19920;-72
2021/08/11 11:58:16;;;;;;;;;;;;;;;;;;4974359;28;20379;-71
2021/08/11 12:00:42;;;;;;;;;;;;;;;;;;4972179;28;19972;-72
2021/08/11 12:03:07;;;;;;;;;;;;;;;;;;4968981;28;19960;-71
2021/08/11 12:05:32;;;;;;;;;;;;;;;;;;4973136;28;20358;-71
2021/08/11 12:07:57;;;;;;;;;;;;;;;;;;4973518;28;19938;-72
2021/08/11 12:10:23;;;;;;;;;;;;;;;;;;4969781;28;19965;-71
2021/08/11 12:12:49;;;;;;;;;;;;;;;;;;4970842;28;19961;-71
2021/08/11 12:15:14;;;;;;;;;;;;;;;;;;4973492;28;19918;-71
2021/08/11 12:17:39;;;;;;;;;;;;;;;;;;4937798;28;19918;-72
2021/08/11 12:20:04;;;;;;;;;;;;;;;;;;4955144;28;20490;-72
2021/08/11 12:22:30;;;;;;;;;;;;;;;;;;4975301;28;20410;-71
2021/08/11 12:24:55;;;;;;;;;;;;;;;;;;4970150;28;19914;-73
2021/08/11 12:27:20;;;;;;;;;;;;;;;;;;4971100;28;19920;-73
2021/08/11 12:29:46;;;;;;;;;;;;;;;;;;4970288;28;20409;-72
2021/08/11 12:32:11;;;;;;;;;;;;;;;;;;4972353;28;20363;-72
2021/08/11 12:34:36;;;;;;;;;;;;;;;;;;4969776;28;20714;-71
2021/08/11 12:37:01;;;;;;;;;;;;;;;;;;4976300;28;19942;-72
2021/08/11 12:39:26;;;;;;;;;;;;;;;;;;4953105;28;19921;-74
2021/08/11 12:41:52;;;;;;;;;;;;;;;;;;4969912;28;19949;-73
2021/08/11 12:44:17;;;;;;;;;;;;;;;;;;4971228;28;19925;-72
2021/08/11 12:46:42;;;;;;;;;;;;;;;;;;4968572;28;19914;-73
2021/08/11 12:49:07;;;;;;;;;;;;;;;;;;4970039;28;19914;-72
2021/08/11 12:51:33;;;;;;;;;;;;;;;;;;4972281;28;19914;-73
2021/08/11 12:53:58;;;;;;;;;;;;;;;;;;4976420;28;19917;-74
2021/08/11 12:56:23;;;;;;;;;;;;;;;;;;4972299;28;19930;-72
2021/08/11 12:58:49;;;;;;;;;;;;;;;;;;4968457;28;20163;-72
2021/08/11 13:01:15;;;;;;;;;;;;;;;;;;4959932;28;19914;-72
2021/08/11 13:03:40;;;;;;;;;;;;;;;;;;4975694;28;19968;-73
2021/08/11 13:06:06;;;;;;;;;;;;;;;;;;4972198;28;19921;-73
2021/08/11 13:08:31;;;;;;;;;;;;;;;;;;4971092;28;19913;-70
2021/08/11 13:10:56;;;;;;;;;;;;;;;;;;4977797;28;19913;-72
2021/08/11 13:13:22;;;;;;;;;;;;;;;;;;4973484;28;19922;-72
2021/08/11 13:15:49;;;;;;;;;;;;;;;;;;4972128;28;19922;-72
2021/08/11 13:18:14;;;;;;;;;;;;;;;;;;4973997;28;19939;-72
2021/08/11 13:20:39;;;;;;;;;;;;;;;;;;4941344;28;19942;-72
2021/08/11 13:23:07;;;;;;;;;;;;;;;;;;4974650;28;19943;-70
2021/08/11 13:25:32;;;;;;;;;;;;;;;;;;4954225;28;19925;-72
2021/08/11 13:27:58;;;;;;;;;;;;;;;;;;4973657;28;19921;-73
2021/08/11 13:30:23;;;;;;;;;;;;;;;;;;4975681;28;19914;-72
2021/08/11 13:32:48;;;;;;;;;;;;;;;;;;4972716;28;19946;-72
2021/08/11 13:35:13;;;;;;;;;;;;;;;;;;4974559;28;20355;-72
2021/08/11 13:37:39;;;;;;;;;;;;;;;;;;4973652;28;19913;-72
2021/08/11 13:40:04;;;;;;;;;;;;;;;;;;4954985;28;19925;-73
2021/08/11 13:42:29;;;;;;;;;;;;;;;;;;4974984;28;19937;-72
2021/08/11 13:44:54;;;;;;;;;;;;;;;;;;4974977;28;20272;-72
2021/08/11 13:47:21;;;;;;;;;;;;;;;;;;4963472;28;20016;-71
2021/08/11 13:49:47;;;;;;;;;;;;;;;;;;4972655;28;20421;-71
2021/08/11 13:52:12;;;;;;;;;;;;;;;;;;4963399;28;20259;-72
2021/08/11 13:54:37;;;;;;;;;;;;;;;;;;4956145;28;20334;-72
2021/08/11 13:57:02;;;;;;;;;;;;;;;;;;4972402;28;19914;-72
2021/08/11 13:59:28;;;;;;;;;;;;;;;;;;4950070;28;19968;-73
2021/08/11 14:01:53;;;;;;;;;;;;;;;;;;4969940;28;20025;-74
2021/08/11 14:04:18;;;;;;;;;;;;;;;;;;4964565;28;20024;-74
2021/08/11 14:06:43;;;;;;;;;;;;;;;;;;4956691;28;19924;-70
2021/08/11 14:09:09;;;;;;;;;;;;;;;;;;4939401;28;20025;-69
2021/08/11 14:11:36;;;;;;;;;;;;;;;;;;4957669;28;20406;-68
2021/08/11 14:14:01;;;;;;;;;;;;;;;;;;4967741;28;19998;-69
2021/08/11 14:16:27;;;;;;;;;;;;;;;;;;4966142;28;19943;-69
2021/08/11 14:18:52;;;;;;;;;;;;;;;;;;4962992;28;19925;-69
2021/08/11 14:21:17;;;;;;;;;;;;;;;;;;4953806;28;19913;-72
2021/08/11 14:23:42;;;;;;;;;;;;;;;;;;4948836;28;19914;-68
2021/08/11 14:26:07;;;;;;;;;;;;;;;;;;4967359;28;19914;-69
2021/08/11 14:28:33;;;;;;;;;;;;;;;;;;4961720;28;20275;-68
2021/08/11 14:30:58;;;;;;;;;;;;;;;;;;4944698;28;19944;-70
2021/08/11 14:33:26;;;;;;;;;;;;;;;;;;4968379;28;19914;-70
2021/08/11 14:35:51;;;;;;;;;;;;;;;;;;4966508;28;20369;-70
2021/08/11 14:38:16;;;;;;;;;;;;;;;;;;4970403;28;19914;-69
2021/08/11 14:40:41;;;;;;;;;;;;;;;;;;4964190;28;19976;-70
2021/08/11 14:43:07;;;;;;;;;;;;;;;;;;4965270;28;19941;-69
2021/08/11 14:45:32;;;;;;;;;;;;;;;;;;4970698;28;19940;-69
2021/08/11 14:47:57;;;;;;;;;;;;;;;;;;4948280;28;19921;-69
2021/08/11 14:50:23;;;;;;;;;;;;;;;;;;4968286;28;19928;-69
2021/08/11 14:52:48;;;;;;;;;;;;;;;;;;4962421;28;19914;-69
2021/08/11 14:55:13;;;;;;;;;;;;;;;;;;4964095;28;19914;-68
2021/08/11 14:57:38;;;;;;;;;;;;;;;;;;4939083;28;19915;-67
2021/08/11 15:00:03;;;;;;;;;;;;;;;;;;4944769;28;19940;-68
2021/08/11 15:02:29;;;;;;;;;;;;;;;;;;4970912;28;19937;-68
2021/08/11 15:04:54;;;;;;;;;;;;;;;;;;4949502;28;19965;-68
2021/08/11 15:07:20;;;;;;;;;;;;;;;;;;4952572;28;19913;-69
2021/08/11 15:09:45;;;;;;;;;;;;;;;;;;4950854;28;19924;-68
2021/08/11 15:12:10;;;;;;;;;;;;;;;;;;4966361;28;19913;-69
2021/08/11 15:14:35;;;;;;;;;;;;;;;;;;4966976;28;19913;-69
2021/08/11 15:17:01;;;;;;;;;;;;;;;;;;4960061;28;19945;-69
2021/08/11 15:19:26;;;;;;;;;;;;;;;;;;4964582;28;19985;-68
2021/08/11 15:21:51;;;;;;;;;;;;;;;;;;4966938;28;19921;-67
2021/08/11 15:24:16;;;;;;;;;;;;;;;;;;4962524;28;19933;-70
2021/08/11 15:26:42;;;;;;;;;;;;;;;;;;4967423;28;20303;-67
2021/08/11 15:29:07;;;;;;;;;;;;;;;;;;4961505;28;19922;-67
2021/08/11 15:31:32;;;;;;;;;;;;;;;;;;4961206;28;20412;-69
2021/08/11 15:33:57;;;;;;;;;;;;;;;;;;4946785;28;20537;-67
2021/08/11 15:36:23;;;;;;;;;;;;;;;;;;4959240;28;20459;-67
2021/08/11 15:38:48;;;;;;;;;;;;;;;;;;4967555;28;19921;-71
2021/08/11 15:41:14;;;;;;;;;;;;;;;;;;4959831;28;20075;-68
2021/08/11 15:43:39;;;;;;;;;;;;;;;;;;4963017;28;20349;-68
2021/08/11 15:46:04;;;;;;;;;;;;;;;;;;4967975;28;19918;-68
2021/08/11 15:48:29;;;;;;;;;;;;;;;;;;4962426;28;19921;-68
2021/08/11 15:50:55;;;;;;;;;;;;;;;;;;4966632;28;19953;-69
2021/08/11 15:53:20;;;;;;;;;;;;;;;;;;4962550;28;19956;-69
2021/08/11 15:55:45;;;;;;;;;;;;;;;;;;4962347;28;19936;-69
2021/08/11 15:58:10;;;;;;;;;;;;;;;;;;4964306;28;19918;-68
2021/08/11 16:00:36;;;;;;;;;;;;;;;;;;4957368;28;19993;-69
2021/08/11 16:03:01;;;;;;;;;;;;;;;;;;4946137;28;19914;-72
2021/08/11 16:05:26;;;;;;;;;;;;;;;;;;4946087;28;19925;-70
2021/08/11 16:07:55;;;;;;;;;;;;;;;;;;4966099;28;19914;-72
2021/08/11 16:10:20;;;;;;;;;;;;;;;;;;4952642;28;20430;-72
2021/08/11 16:12:45;;;;;;;;;;;;;;;;;;4949417;28;19928;-72
2021/08/11 16:15:13;;;;;;;;;;;;;;;;;;4970057;28;19910;-71
2021/08/11 16:17:40;;;;;;;;;;;;;;;;;;4962630;28;19917;-71
2021/08/11 16:20:05;;;;;;;;;;;;;;;;;;4961915;28;20040;-71
2021/08/11 16:22:30;;;;;;;;;;;;;;;;;;4966193;28;20359;-70
2021/08/11 16:24:55;;;;;;;;;;;;;;;;;;4940621;28;20383;-72
2021/08/11 16:27:22;;;;;;;;;;;;;;;;;;4960213;28;20060;-71
2021/08/11 16:29:48;;;;;;;;;;;;;;;;;;4968568;28;19917;-71
2021/08/11 16:32:13;;;;;;;;;;;;;;;;;;4967838;28;19925;-70
2021/08/11 16:34:38;;;;;;;;;;;;;;;;;;4971611;28;19921;-70